Time;durP1;ratioP1;P1;durP2;ratioP2;P2;SDS_P1;SDS_P2;PMS_P1;PMS_P2;Temp;Humidity;BMP_temperature;BMP_pressure;BME280_temperature;BME280_humidity;BME280_pressure;Samples;Min_cycle;Max_cycle;Signal;HPM_P1;HPM_P2
2022/05/23 00:01:05;;;;;;;8.50;2.45;;;;;;;16.35;61.93;100791.19;5075127;28;20383;-43
2022/05/23 00:03:31;;;;;;;6.18;2.35;;;;;;;16.24;63.30;100794.56;5075092;28;20058;-42
2022/05/23 00:05:58;;;;;;;8.15;2.50;;;;;;;16.23;63.07;100787.75;5057258;28;20026;-42
2022/05/23 00:08:25;;;;;;;7.68;2.45;;;;;;;16.16;62.72;100782.63;5075261;28;20021;-43
2022/05/23 00:10:51;;;;;;;7.72;2.28;;;;;;;16.22;63.94;100779.13;5075010;28;20028;-44
2022/05/23 00:13:16;;;;;;;4.18;2.22;;;;;;;16.25;62.44;100775.28;5074874;28;20435;-43
2022/05/23 00:15:41;;;;;;;8.23;3.35;;;;;;;16.17;63.69;100773.81;5056845;28;20048;-42
2022/05/23 00:18:07;;;;;;;6.60;2.72;;;;;;;16.15;62.85;100760.19;5074636;28;20452;-43
2022/05/23 00:20:32;;;;;;;7.68;2.60;;;;;;;16.06;64.32;100760.75;5074998;28;20034;-44
2022/05/23 00:22:57;;;;;;;5.75;2.40;;;;;;;16.11;65.51;100760.84;5074475;28;20016;-43
2022/05/23 00:25:23;;;;;;;5.72;2.50;;;;;;;16.09;63.52;100747.28;5074415;28;20032;-42
2022/05/23 00:27:48;;;;;;;6.70;2.50;;;;;;;16.18;63.01;100744.09;5073774;28;20099;-43
2022/05/23 00:30:17;;;;;;;6.82;2.35;;;;;;;16.19;62.94;100737.84;5074603;28;20024;-42
2022/05/23 00:35:27;;;;;;;5.60;2.42;;;;;;;16.02;62.73;100732.53;5074544;28;20035;-43
2022/05/23 00:37:55;;;;;;;10.90;2.60;;;;;;;15.95;64.26;100728.44;5073931;28;20028;-48
2022/05/23 00:40:30;;;;;;;7.47;2.30;;;;;;;15.91;63.06;100725.47;5074729;28;20373;-44
2022/05/23 00:43:15;;;;;;;7.68;2.67;;;;;;;15.95;63.15;100724.00;5074366;28;20021;-49
2022/05/23 00:45:51;;;;;;;9.10;2.58;;;;;;;15.73;64.30;100708.06;5058910;28;20458;-41
2022/05/23 00:48:20;;;;;;;9.98;2.70;;;;;;;15.86;64.84;100701.91;5073903;28;20040;-44
2022/05/23 00:50:49;;;;;;;8.80;2.53;;;;;;;15.82;65.95;100695.53;5073985;28;20435;-45
2022/05/23 00:53:17;;;;;;;12.60;2.78;;;;;;;15.74;65.97;100694.06;5056416;28;20107;-46
2022/05/23 00:55:47;;;;;;;6.72;2.60;;;;;;;15.72;66.59;100688.25;5073839;28;20033;-42
2022/05/23 00:58:25;;;;;;;10.20;2.70;;;;;;;15.69;66.53;100683.50;5056765;28;20066;-43
2022/05/23 01:00:51;;;;;;;5.05;2.40;;;;;;;15.66;66.30;100677.91;5074138;28;20514;-42
2022/05/23 01:03:18;;;;;;;9.63;2.70;;;;;;;15.74;66.24;100681.03;5074115;28;20055;-43
2022/05/23 01:05:45;;;;;;;9.52;2.28;;;;;;;15.81;65.65;100683.53;5073888;28;20035;-44
2022/05/23 01:08:14;;;;;;;9.32;2.67;;;;;;;15.67;64.43;100692.53;5073367;28;20499;-43
2022/05/23 01:10:40;;;;;;;6.25;2.55;;;;;;;15.62;64.22;100690.56;5074044;28;20051;-41
2022/05/23 01:13:05;;;;;;;10.27;2.65;;;;;;;15.72;65.25;100675.25;5074116;28;20036;-46
2022/05/23 01:15:32;;;;;;;9.52;2.70;;;;;;;15.68;65.06;100673.28;5073890;28;20035;-43
2022/05/23 01:17:58;;;;;;;7.95;2.53;;;;;;;15.48;67.22;100676.19;5073866;28;20320;-43
2022/05/23 01:20:24;;;;;;;9.10;2.60;;;;;;;15.37;67.25;100669.91;5074045;28;20050;-43
2022/05/23 01:23:06;;;;;;;6.53;2.45;;;;;;;15.43;68.28;100663.81;5073506;28;20119;-43
2022/05/23 01:25:38;;;;;;;11.70;2.70;;;;;;;15.36;67.18;100665.69;5073766;28;20028;-43
2022/05/23 01:28:03;;;;;;;6.47;2.50;;;;;;;15.29;67.73;100657.19;5073242;28;20016;-42
2022/05/23 01:30:30;;;;;;;5.60;2.42;;;;;;;15.49;66.23;100669.94;5055771;28;20036;-42
2022/05/23 01:32:55;;;;;;;5.55;2.60;;;;;;;15.39;65.30;100672.28;5073415;28;20066;-43
2022/05/23 01:35:21;;;;;;;6.03;2.33;;;;;;;15.41;65.49;100670.25;5073922;28;20025;-42
2022/05/23 01:37:47;;;;;;;7.13;2.60;;;;;;;15.36;65.44;100678.72;5073426;28;20028;-42
2022/05/23 01:40:15;;;;;;;9.75;2.80;;;;;;;15.46;65.42;100678.19;5073551;28;20089;-43
2022/05/23 01:42:41;;;;;;;5.88;2.65;;;;;;;15.45;65.38;100677.41;5073327;28;20025;-42
2022/05/23 01:45:07;;;;;;;7.47;2.90;;;;;;;15.43;65.39;100676.81;5077369;28;20047;-44
2022/05/23 01:47:33;;;;;;;5.53;2.67;;;;;;;15.35;65.89;100674.53;5079967;28;20027;-47
2022/05/23 01:49:59;;;;;;;6.28;2.47;;;;;;;15.40;66.24;100676.47;5080416;28;20418;-42
2022/05/23 01:52:24;;;;;;;7.72;2.92;;;;;;;15.39;66.19;100670.44;5079841;28;20463;-42
2022/05/23 01:54:49;;;;;;;8.35;2.97;;;;;;;15.20;66.58;100667.13;5079940;28;20032;-43
2022/05/23 01:57:14;;;;;;;8.20;2.47;;;;;;;15.16;67.41;100667.75;5080071;28;20048;-43
2022/05/23 02:02:24;;;;;;;8.23;3.03;;;;;;;15.12;67.39;100660.41;5080275;28;20090;-43
2022/05/23 02:04:52;;;;;;;10.00;2.80;;;;;;;15.03;67.60;100655.72;5061807;28;20410;-42
2022/05/23 02:07:17;;;;;;;9.10;2.80;;;;;;;15.06;68.13;100655.28;5080129;28;20060;-43
2022/05/23 02:09:43;;;;;;;9.27;2.92;;;;;;;15.21;67.16;100654.88;5080190;28;20024;-41
2022/05/23 02:12:10;;;;;;;10.23;3.00;;;;;;;15.23;66.73;100653.66;5061596;28;20016;-43
2022/05/23 02:14:37;;;;;;;8.38;2.95;;;;;;;15.17;66.54;100657.16;5079585;28;20083;-43
2022/05/23 02:17:02;;;;;;;8.07;2.90;;;;;;;15.09;66.44;100653.03;5079700;28;20529;-43
2022/05/23 02:19:31;;;;;;;6.75;3.10;;;;;;;15.05;66.99;100657.09;5079689;28;20032;-43
2022/05/23 02:21:56;;;;;;;10.23;3.00;;;;;;;14.99;67.15;100655.38;5079676;28;20420;-42
2022/05/23 02:24:21;;;;;;;5.47;2.60;;;;;;;15.06;66.93;100653.47;5079553;28;20046;-44
2022/05/23 02:26:48;;;;;;;7.63;3.17;;;;;;;14.88;67.29;100651.69;5079902;28;20412;-43
2022/05/23 02:29:14;;;;;;;6.40;3.22;;;;;;;14.95;67.35;100646.41;5079414;28;20028;-42
2022/05/23 02:31:40;;;;;;;8.38;2.75;;;;;;;14.98;67.13;100639.97;5079487;28;20085;-42
2022/05/23 02:34:06;;;;;;;7.65;2.83;;;;;;;14.93;67.66;100645.03;5079841;28;20016;-43
2022/05/23 02:36:32;;;;;;;9.88;3.10;;;;;;;14.93;67.89;100647.63;5079447;28;20030;-46
2022/05/23 02:38:57;;;;;;;7.28;3.08;;;;;;;15.00;67.62;100638.72;5079497;28;20028;-44
2022/05/23 02:41:22;;;;;;;12.45;3.30;;;;;;;14.76;68.57;100629.22;5061510;28;20024;-42
2022/05/23 02:43:48;;;;;;;7.95;3.05;;;;;;;14.88;68.04;100624.88;5079409;28;20050;-43
2022/05/23 02:46:14;;;;;;;5.97;2.80;;;;;;;14.92;68.04;100620.03;5079626;28;20034;-43
2022/05/23 02:48:39;;;;;;;6.75;3.22;;;;;;;14.96;67.66;100626.38;5061544;28;20100;-44
2022/05/23 02:51:04;;;;;;;7.13;3.38;;;;;;;14.97;67.88;100618.34;5079604;28;20542;-43
2022/05/23 02:53:30;;;;;;;9.50;3.35;;;;;;;14.88;68.12;100619.69;5079210;28;20024;-43
2022/05/23 02:55:55;;;;;;;7.70;3.60;;;;;;;14.76;68.50;100605.78;5077546;28;20447;-44
2022/05/23 02:58:20;;;;;;;8.43;3.00;;;;;;;14.88;67.98;100607.47;5075992;28;20021;-42
2022/05/23 03:00:46;;;;;;;7.15;3.20;;;;;;;14.95;68.20;100603.97;5058199;28;20020;-42
2022/05/23 03:03:12;;;;;;;7.03;2.97;;;;;;;14.88;68.50;100594.44;5075939;28;20106;-43
2022/05/23 03:05:43;;;;;;;8.10;3.40;;;;;;;14.84;68.16;100595.88;5076062;28;20024;-43
2022/05/23 03:08:11;;;;;;;9.07;3.20;;;;;;;14.77;69.59;100589.19;5075631;28;20053;-43
2022/05/23 03:10:37;;;;;;;7.05;3.13;;;;;;;14.69;69.85;100586.88;5076471;28;20523;-43
2022/05/23 03:13:04;;;;;;;10.55;3.50;;;;;;;14.65;70.01;100569.13;5076071;28;20394;-43
2022/05/23 03:15:30;;;;;;;6.45;3.22;;;;;;;14.66;70.11;100573.31;5076145;28;20111;-42
2022/05/23 03:17:55;;;;;;;6.93;3.55;;;;;;;14.69;70.36;100569.47;5076543;28;20031;-46
2022/05/23 03:20:21;;;;;;;6.60;3.42;;;;;;;14.65;70.88;100563.13;5075636;28;20028;-43
2022/05/23 03:28:14;;;;;;;8.65;3.30;;;;;;;14.68;70.61;100526.28;5076343;28;20039;-47
2022/05/23 03:30:40;;;;;;;6.72;3.22;;;;;;;14.70;71.08;100526.03;5075450;28;20466;-42
2022/05/23 03:33:07;;;;;;;9.85;3.42;;;;;;;14.61;70.08;100510.75;5075485;28;20031;-43
2022/05/23 03:35:33;;;;;;;8.60;3.42;;;;;;;14.59;70.30;100502.38;5075746;28;20104;-44
2022/05/23 03:37:59;;;;;;;7.78;3.42;;;;;;;14.60;71.50;100498.75;5075770;28;20416;-44
2022/05/23 03:40:25;;;;;;;8.05;3.25;;;;;;;14.65;69.97;100483.31;5075341;28;20028;-42
2022/05/23 03:42:50;;;;;;;7.43;3.38;;;;;;;14.59;69.86;100483.41;5057308;28;20035;-43
2022/05/23 03:45:16;;;;;;;6.80;3.10;;;;;;;14.71;69.04;100486.81;5075237;28;20043;-44
2022/05/23 03:47:41;;;;;;;10.18;3.50;;;;;;;14.62;69.01;100499.34;5075814;28;20023;-44
2022/05/23 03:50:08;;;;;;;5.22;3.28;;;;;;;14.50;69.40;100495.06;5075644;28;20021;-43
2022/05/23 03:52:33;;;;;;;9.10;3.40;;;;;;;14.48;70.18;100482.28;5075338;28;20115;-44
2022/05/23 03:54:58;;;;;;;7.65;3.47;;;;;;;14.44;70.13;100484.56;5075337;28;20048;-43
2022/05/23 03:57:24;;;;;;;9.68;3.40;;;;;;;14.37;70.23;100473.44;5075574;28;20107;-42
2022/05/23 03:59:50;;;;;;;8.48;3.40;;;;;;;14.38;70.13;100471.63;5075231;28;20403;-42
2022/05/23 04:02:15;;;;;;;11.50;3.70;;;;;;;14.23;71.10;100466.81;5075207;28;20360;-43
2022/05/23 04:04:40;;;;;;;5.07;3.20;;;;;;;14.39;70.35;100466.22;5074549;28;20029;-41
2022/05/23 04:07:07;;;;;;;11.63;3.70;;;;;;;14.33;70.51;100456.69;5073995;28;20134;-43
2022/05/23 04:09:33;;;;;;;11.65;3.28;;;;;;;14.39;70.72;100455.81;5074951;28;20037;-43
2022/05/23 04:11:59;;;;;;;8.52;3.45;;;;;;;14.40;70.52;100452.19;5074946;28;20031;-43
2022/05/23 04:14:25;;;;;;;9.65;4.05;;;;;;;14.29;71.62;100445.13;5074690;28;20039;-43
2022/05/23 04:16:51;;;;;;;7.65;3.22;;;;;;;14.36;71.70;100439.88;5075157;28;20079;-43
2022/05/23 04:19:17;;;;;;;11.35;3.92;;;;;;;14.49;71.34;100439.69;5074558;28;20017;-42
2022/05/23 04:21:44;;;;;;;11.93;3.75;;;;;;;14.57;71.36;100447.19;5074820;28;20024;-42
2022/05/23 04:24:11;;;;;;;8.48;4.03;;;;;;;14.65;71.85;100446.09;5074492;28;20040;-42
2022/05/23 04:26:37;;;;;;;7.40;4.00;;;;;;;14.65;71.08;100443.50;5073953;28;20116;-41
2022/05/23 04:29:04;;;;;;;7.00;4.03;;;;;;;14.72;72.29;100441.59;5074575;28;20060;-42
2022/05/23 04:31:29;;;;;;;9.82;4.07;;;;;;;14.76;72.07;100444.53;5074368;28;20024;-43
2022/05/23 04:36:38;;;;;;;8.45;3.90;;;;;;;14.84;71.44;100442.41;5074198;28;20445;-42
2022/05/23 04:39:04;;;;;;;10.27;3.92;;;;;;;14.96;71.65;100447.66;5074154;28;20024;-43
2022/05/23 04:41:29;;;;;;;11.13;3.97;;;;;;;14.95;70.20;100430.44;5074199;28;20471;-42
2022/05/23 04:43:54;;;;;;;9.77;3.85;;;;;;;14.97;70.47;100440.63;5074383;28;20029;-42
2022/05/23 04:46:20;;;;;;;7.10;3.70;;;;;;;15.14;69.80;100444.16;5074322;28;20459;-42
2022/05/23 04:51:29;;;;;;;8.05;3.70;;;;;;;15.14;68.59;100438.19;5074799;28;20081;-42
2022/05/23 04:53:55;;;;;;;6.20;3.60;;;;;;;15.10;68.80;100435.22;5074133;28;20020;-43
2022/05/23 04:56:21;;;;;;;10.70;3.88;;;;;;;15.09;68.65;100433.63;5074112;28;20111;-44
2022/05/23 04:58:47;;;;;;;11.82;4.22;;;;;;;14.91;69.03;100431.13;5073987;28;20413;-42
2022/05/23 05:01:12;;;;;;;11.32;4.03;;;;;;;14.79;69.56;100421.50;5073787;28;20077;-44
2022/05/23 05:03:37;;;;;;;9.18;4.03;;;;;;;14.78;69.83;100422.50;5073852;28;20024;-43
2022/05/23 05:06:03;;;;;;;8.82;4.00;;;;;;;14.86;69.76;100414.38;5055617;28;20026;-43
2022/05/23 05:08:29;;;;;;;10.52;3.92;;;;;;;14.98;69.36;100408.38;5073739;28;20379;-42
2022/05/23 05:10:57;;;;;;;8.48;3.90;;;;;;;15.08;69.54;100403.44;5073416;28;20028;-44
2022/05/23 05:13:22;;;;;;;11.15;4.10;;;;;;;15.25;69.00;100388.72;5073381;28;20078;-43
2022/05/23 05:15:48;;;;;;;9.02;3.70;;;;;;;15.33;68.69;100385.78;5073799;28;20386;-42
2022/05/23 05:18:13;;;;;;;7.60;3.90;;;;;;;15.32;68.64;100392.00;5056048;28;20025;-43
2022/05/23 05:20:38;;;;;;;7.30;4.03;;;;;;;15.42;68.72;100393.22;5073245;28;20028;-42
2022/05/23 05:23:03;;;;;;;14.57;3.90;;;;;;;15.49;68.39;100397.28;5073260;28;20107;-42
2022/05/23 05:25:29;;;;;;;11.18;4.30;;;;;;;15.28;68.86;100387.47;5073552;28;20494;-42
2022/05/23 05:27:54;;;;;;;11.27;4.13;;;;;;;15.25;69.20;100387.94;5073344;28;20076;-42
2022/05/23 05:30:21;;;;;;;11.77;4.13;;;;;;;15.34;68.67;100379.53;5073458;28;20020;-43
2022/05/23 05:32:50;;;;;;;11.80;4.20;;;;;;;15.52;68.35;100377.81;5073355;28;20113;-41
2022/05/23 05:35:30;;;;;;;10.15;4.28;;;;;;;15.52;68.37;100376.00;5073382;28;20055;-42
2022/05/23 05:38:09;;;;;;;6.53;3.75;;;;;;;15.58;68.54;100375.09;5073490;28;20375;-43
2022/05/23 05:40:35;;;;;;;13.95;4.78;;;;;;;15.84;67.91;100377.44;5073911;28;20020;-43
2022/05/23 05:43:10;;;;;;;12.63;4.90;;;;;;;15.72;68.13;100364.44;5073029;28;20028;-42
2022/05/23 05:45:47;;;;;;;9.60;4.22;;;;;;;15.90;67.71;100353.84;5073629;28;20021;-42
2022/05/23 05:48:13;;;;;;;8.73;4.15;;;;;;;16.27;66.83;100363.91;5072983;28;20078;-42
2022/05/23 05:50:41;;;;;;;11.20;4.53;;;;;;;16.33;66.74;100352.53;5073068;28;20025;-41
2022/05/23 05:53:10;;;;;;;8.77;4.25;;;;;;;16.44;66.01;100356.09;5072975;28;20032;-42
2022/05/23 05:55:40;;;;;;;13.65;5.00;;;;;;;16.32;66.55;100355.38;5073339;28;20059;-42
2022/05/23 05:58:07;;;;;;;13.20;4.75;;;;;;;16.66;66.61;100343.16;5073044;28;20035;-43
2022/05/23 06:00:32;;;;;;;10.45;4.40;;;;;;;16.84;65.70;100334.31;5073104;28;20030;-45
2022/05/23 06:02:57;;;;;;;6.63;4.47;;;;;;;17.26;63.93;100328.59;5072950;28;20342;-43
2022/05/23 06:05:23;;;;;;;8.60;4.20;;;;;;;16.86;65.17;100347.91;5072808;28;20074;-43
2022/05/23 06:13:16;;;;;;;8.43;4.53;;;;;;;20.07;56.03;100338.53;5073510;28;20536;-42
2022/05/23 06:15:42;;;;;;;9.32;4.20;;;;;;;20.07;55.53;100338.53;5054963;28;20024;-43
2022/05/23 06:18:08;;;;;;;10.25;3.90;;;;;;;20.24;54.66;100325.19;5072825;28;20027;-41
2022/05/23 06:20:34;;;;;;;11.20;4.40;;;;;;;19.50;57.51;100329.72;5072801;28;20119;-44
2022/05/23 06:23:01;;;;;;;11.57;4.60;;;;;;;19.06;58.56;100324.03;5073345;28;20017;-41
2022/05/23 06:25:26;;;;;;;7.03;4.40;;;;;;;18.40;60.16;100317.28;5072643;28;20025;-43
2022/05/23 06:27:51;;;;;;;12.25;4.68;;;;;;;17.91;62.42;100327.03;5072643;28;20093;-42
2022/05/23 06:30:18;;;;;;;10.25;4.72;;;;;;;17.85;62.71;100325.41;5073822;28;20013;-41
2022/05/23 06:32:43;;;;;;;9.82;4.70;;;;;;;17.50;64.32;100326.56;5076053;28;20543;-40
2022/05/23 06:35:09;;;;;;;9.95;4.95;;;;;;;17.49;64.01;100324.97;5075139;28;20055;-42
2022/05/23 06:37:36;;;;;;;9.90;5.18;;;;;;;17.04;66.12;100311.13;5076081;28;20048;-43
2022/05/23 06:40:07;;;;;;;12.38;4.97;;;;;;;17.14;65.75;100307.84;5076579;28;20016;-42
2022/05/23 06:42:33;;;;;;;8.60;4.78;;;;;;;17.45;65.64;100319.47;5076909;28;20032;-42
2022/05/23 06:45:03;;;;;;;10.88;5.00;;;;;;;17.45;65.18;100313.44;5076358;28;20360;-41
2022/05/23 06:47:28;;;;;;;10.90;4.80;;;;;;;17.80;64.40;100305.22;5076422;28;20048;-41
2022/05/23 06:49:54;;;;;;;7.82;4.75;;;;;;;18.04;63.63;100300.50;5075988;28;20025;-42
2022/05/23 06:52:20;;;;;;;11.25;4.90;;;;;;;18.29;63.78;100302.53;5076064;28;20039;-44
2022/05/23 06:54:45;;;;;;;11.63;5.03;;;;;;;18.48;62.87;100301.13;5076356;28;20095;-43
2022/05/23 06:57:11;;;;;;;10.50;4.95;;;;;;;18.80;61.18;100284.59;5076057;28;20391;-42
2022/05/23 06:59:37;;;;;;;12.80;4.90;;;;;;;18.84;61.10;100282.28;5075837;28;20379;-42
2022/05/23 07:02:03;;;;;;;12.95;5.00;;;;;;;19.53;60.02;100278.63;5075717;28;20463;-43
2022/05/23 07:12:19;;;;;;;10.10;4.72;;;;;;;19.36;59.70;100261.31;5075744;28;20024;-42
2022/05/23 07:12:42;;;;;;;11.35;4.35;;;;;;;21.19;55.75;100256.22;5076131;28;20121;-42
2022/05/23 07:15:08;;;;;;;12.50;4.85;;;;;;;20.11;57.57;100257.47;5076092;28;20025;-43
2022/05/23 07:17:33;;;;;;;12.10;4.63;;;;;;;19.88;58.41;100251.72;5076025;28;20457;-42
2022/05/23 07:19:59;;;;;;;8.57;4.97;;;;;;;19.99;59.07;100248.03;5075736;28;20104;-42
2022/05/23 07:22:24;;;;;;;10.02;4.70;;;;;;;20.04;58.91;100258.53;5076113;28;20026;-43
2022/05/23 07:24:49;;;;;;;12.57;5.15;;;;;;;19.88;58.98;100256.16;5075601;28;20466;-43
2022/05/23 07:27:14;;;;;;;9.90;4.97;;;;;;;20.47;57.74;100256.41;5076204;28;20363;-43
2022/05/23 07:29:40;;;;;;;8.52;4.85;;;;;;;20.34;57.42;100245.66;5075800;28;20028;-42
2022/05/23 07:32:07;;;;;;;12.00;5.28;;;;;;;20.35;57.97;100249.88;5076011;28;20024;-43
2022/05/23 07:34:32;;;;;;;8.23;5.10;;;;;;;20.45;58.61;100258.50;5075231;28;20035;-43
2022/05/23 07:36:59;;;;;;;14.40;5.07;;;;;;;20.03;59.04;100262.22;5057934;28;20021;-42
2022/05/23 07:39:24;;;;;;;12.77;5.10;;;;;;;19.75;60.04;100253.00;5075453;28;20016;-42
2022/05/23 07:41:50;;;;;;;11.23;5.30;;;;;;;19.77;59.85;100247.53;5075252;28;20023;-42
2022/05/23 07:44:15;;;;;;;9.82;5.20;;;;;;;20.01;59.69;100242.53;5074989;28;20028;-42
2022/05/23 07:46:43;;;;;;;15.43;5.70;;;;;;;19.92;59.65;100242.28;5075482;28;20036;-43
2022/05/23 07:49:08;;;;;;;10.88;4.95;;;;;;;20.33;59.68;100238.84;5075086;28;20077;-42
2022/05/23 07:51:33;;;;;;;10.65;5.30;;;;;;;20.14;59.19;100243.84;5075036;28;20428;-42
2022/05/23 08:02:17;;;;;;;10.00;5.47;;;;;;;19.75;61.01;100234.66;5075512;28;20031;-43
2022/05/23 08:04:42;;;;;;;13.93;5.40;;;;;;;19.54;61.85;100239.06;5074936;28;20067;-43
2022/05/23 08:07:09;;;;;;;11.65;5.32;;;;;;;19.60;61.57;100232.00;5074917;28;20080;-42
2022/05/23 08:09:35;;;;;;;13.63;5.43;;;;;;;19.96;61.53;100224.97;5074985;28;20489;-41
2022/05/23 08:12:00;;;;;;;9.80;5.00;;;;;;;19.90;60.82;100225.22;5074728;28;20054;-41
2022/05/23 08:14:26;;;;;;;9.93;5.22;;;;;;;19.75;60.69;100213.69;5075032;28;20021;-42
2022/05/23 08:16:51;;;;;;;10.52;5.28;;;;;;;20.02;60.63;100210.00;5074575;28;20086;-41
2022/05/23 08:19:17;;;;;;;13.10;5.35;;;;;;;20.00;60.12;100204.25;5074578;28;20024;-43
2022/05/23 08:21:50;;;;;;;12.40;5.47;;;;;;;19.83;60.73;100199.28;5074511;28;20031;-43
2022/05/23 08:24:15;;;;;;;10.75;5.13;;;;;;;19.98;60.21;100201.91;5056811;28;20028;-42
2022/05/23 08:26:40;;;;;;;10.13;5.47;;;;;;;20.04;60.40;100202.69;5074430;28;20074;-44
2022/05/23 08:29:06;;;;;;;8.30;4.70;;;;;;;20.10;60.43;100201.63;5074553;28;20025;-42
2022/05/23 08:31:32;;;;;;;12.27;5.13;;;;;;;20.20;60.36;100195.59;5056308;28;20025;-42
2022/05/23 08:33:57;;;;;;;7.78;5.00;;;;;;;20.36;59.36;100204.22;5074195;28;20033;-42
2022/05/23 08:36:22;;;;;;;11.15;5.13;;;;;;;21.10;58.35;100200.81;5074926;28;20020;-41
2022/05/23 08:38:47;;;;;;;11.77;5.20;;;;;;;21.67;55.45;100198.66;5056437;28;20107;-42
2022/05/23 08:41:15;;;;;;;10.93;4.70;;;;;;;22.09;54.42;100199.88;5074433;28;20024;-42
2022/05/23 08:44:04;;;;;;;9.68;4.68;;;;;;;22.10;55.54;100193.56;5074999;28;20028;-42
2022/05/23 08:46:40;;;;;;;9.45;4.57;;;;;;;21.86;54.76;100185.59;5074326;28;20447;-42
2022/05/23 08:49:15;;;;;;;10.20;4.85;;;;;;;21.97;53.96;100181.84;5073920;28;20439;-42
2022/05/23 08:52:01;;;;;;;10.98;4.90;;;;;;;22.27;52.80;100182.66;5074089;28;20051;-41
2022/05/23 08:55:07;;;;;;;7.60;4.43;;;;;;;22.54;53.31;100179.44;5073222;28;20427;-42
2022/05/23 08:58:00;;;;;;;10.98;4.50;;;;;;;24.01;50.74;100175.00;5073785;28;20081;-41
2022/05/23 09:00:35;;;;;;;8.27;4.80;;;;;;;23.87;49.35;100174.97;5047319;28;20068;-42
2022/05/23 09:03:13;;;;;;;7.20;4.03;;;;;;;24.81;47.32;100163.19;5073502;28;20032;-43
2022/05/23 09:05:44;;;;;;;7.30;4.35;;;;;;;24.59;46.56;100152.56;5073928;28;20028;-42
2022/05/23 09:08:20;;;;;;;11.23;4.18;;;;;;;24.83;46.61;100157.59;5073495;28;20438;-42
2022/05/23 09:10:54;;;;;;;9.30;4.03;;;;;;;24.95;46.68;100152.59;5073556;28;20043;-41
2022/05/23 09:13:20;;;;;;;8.43;4.07;;;;;;;24.30;47.47;100153.63;5073434;28;20028;-43
2022/05/23 09:15:49;;;;;;;10.55;4.05;;;;;;;24.95;46.62;100147.31;5073584;28;20069;-42
2022/05/23 09:18:21;;;;;;;11.18;3.72;;;;;;;25.74;44.55;100152.06;5055969;28;20097;-44
2022/05/23 09:20:50;;;;;;;11.13;3.88;;;;;;;25.58;43.88;100146.38;5074127;28;20186;-43
2022/05/23 09:23:28;;;;;;;14.27;3.60;;;;;;;26.50;43.02;100135.28;5073835;28;20051;-44
2022/05/23 09:25:56;;;;;;;5.88;3.17;;;;;;;25.62;43.98;100134.09;5073468;28;20419;-42
2022/05/23 09:28:34;;;;;;;8.52;3.67;;;;;;;25.39;44.34;100130.69;5073924;28;20466;-44
2022/05/23 09:31:10;;;;;;;6.90;3.33;;;;;;;24.81;46.29;100125.41;5073569;28;20029;-43
2022/05/23 09:33:45;;;;;;;8.48;3.40;;;;;;;24.44;47.00;100116.69;5073597;28;20490;-41
2022/05/23 09:36:17;;;;;;;7.47;3.30;;;;;;;23.64;47.08;100119.41;5073776;28;20463;-43
2022/05/23 09:38:53;;;;;;;;;;;;;;;23.40;48.89;100116.13;5074001;28;20028;-41
2022/05/23 09:47:44;;;;;;;6.90;3.50;;;;;;;23.28;48.45;100108.66;5073164;28;19953;-42
2022/05/23 09:49:46;;;;;;;6.35;3.17;;;;;;;23.13;50.45;100090.44;5073475;28;20031;-44
2022/05/23 09:52:32;;;;;;;7.32;3.65;;;;;;;23.04;50.70;100086.91;5073082;28;20021;-41
2022/05/23 09:55:00;;;;;;;7.20;3.50;;;;;;;22.67;51.52;100085.81;5073485;28;20454;-50
2022/05/23 09:57:32;;;;;;;10.00;3.80;;;;;;;22.93;51.30;100081.75;5072948;28;20036;-42
2022/05/23 10:00:09;;;;;;;14.55;4.40;;;;;;;22.72;51.90;100078.63;5055106;28;20024;-42
2022/05/23 10:02:38;;;;;;;6.55;3.33;;;;;;;22.85;52.51;100073.72;5073427;28;20044;-43
2022/05/23 10:05:27;;;;;;;6.70;3.42;;;;;;;22.61;53.21;100076.41;5073031;28;20028;-43
2022/05/23 10:07:56;;;;;;;9.25;3.60;;;;;;;22.59;53.54;100076.69;5076657;28;20040;-41
2022/05/23 10:10:24;;;;;;;9.07;3.95;;;;;;;22.48;53.99;100062.88;5076969;28;20029;-43
2022/05/23 10:12:50;;;;;;;10.70;4.10;;;;;;;22.80;54.77;100053.50;5076943;28;20021;-41
2022/05/23 10:15:28;;;;;;;11.25;4.05;;;;;;;23.08;54.58;100048.38;5077837;28;20046;-42
2022/05/23 10:18:00;;;;;;;8.90;3.85;;;;;;;23.10;53.44;100035.69;5076752;28;20035;-44
2022/05/23 10:20:34;;;;;;;12.98;4.70;;;;;;;22.99;53.00;100037.72;5076918;28;20052;-44
2022/05/23 10:23:07;;;;;;;7.70;4.30;;;;;;;22.76;52.67;100034.06;5076746;28;20068;-42
2022/05/23 10:25:37;;;;;;;9.23;4.07;;;;;;;22.79;53.16;100030.88;5076928;28;20028;-44
2022/05/23 10:28:12;;;;;;;13.77;4.28;;;;;;;22.89;52.38;100022.78;5076885;28;20030;-44
2022/05/23 10:30:43;;;;;;;9.40;4.20;;;;;;;22.34;54.54;100027.78;5077088;28;20032;-42
2022/05/23 10:33:10;;;;;;;8.13;4.05;;;;;;;22.35;55.43;100029.34;5076898;28;20027;-43
2022/05/23 10:35:40;;;;;;;8.10;4.30;;;;;;;22.09;55.98;100032.28;5076538;28;20028;-46
2022/05/23 10:44:21;;;;;;;6.38;3.17;;;;;;;22.42;54.13;100023.75;5076540;28;20063;-43
2022/05/23 10:46:53;;;;;;;7.47;3.20;;;;;;;22.35;54.17;100012.78;5076765;28;20043;-44
2022/05/23 10:49:41;;;;;;;8.65;4.10;;;;;;;22.67;53.06;100009.44;5076171;28;20031;-43
2022/05/23 10:52:29;;;;;;;7.20;3.95;;;;;;;22.35;54.51;100007.53;5076431;28;20024;-45
2022/05/23 10:55:10;;;;;;;8.10;3.97;;;;;;;22.48;53.86;99998.94;5058809;28;20087;-42
2022/05/23 10:57:50;;;;;;;10.45;4.35;;;;;;;22.38;53.93;99996.41;5076404;28;20113;-44
2022/05/23 11:00:21;;;;;;;7.00;4.20;;;;;;;22.44;54.98;99993.44;5076154;28;20016;-42
2022/05/23 11:02:54;;;;;;;7.38;4.00;;;;;;;22.41;55.80;99980.06;5075973;28;20135;-48
2022/05/23 11:05:32;;;;;;;7.57;4.50;;;;;;;22.03;56.06;99974.75;5076294;28;20379;-45
2022/05/23 11:08:05;;;;;;;9.30;4.53;;;;;;;21.88;56.69;99980.19;5075840;28;20097;-44
2022/05/23 11:10:36;;;;;;;11.40;4.90;;;;;;;22.05;56.91;99970.00;5076564;28;20028;-48
2022/05/23 11:13:04;;;;;;;11.38;4.28;;;;;;;22.42;56.51;99969.25;5075803;28;20072;-43
2022/05/23 11:16:05;;;;;;;14.45;5.93;;;;;;;22.52;55.56;99971.72;5076054;28;20024;-43
2022/05/23 11:18:50;;;;;;;14.70;5.85;;;;;;;22.74;55.01;99967.72;5057540;28;20162;-43
2022/05/23 11:21:36;;;;;;;16.88;6.22;;;;;;;23.23;54.09;99958.50;5075933;28;20031;-44
2022/05/23 11:24:08;;;;;;;16.52;6.90;;;;;;;23.78;53.57;99948.00;5075616;28;20020;-44
2022/05/23 11:26:41;;;;;;;14.47;7.50;;;;;;;23.89;53.71;99948.56;5075637;28;20027;-44
2022/05/23 11:35:10;;;;;;;11.10;6.55;;;;;;;24.52;52.07;99947.75;5076352;28;20059;-42
2022/05/23 11:37:46;;;;;;;12.98;7.30;;;;;;;24.41;51.94;99945.59;5076039;28;20028;-43
2022/05/23 11:40:27;;;;;;;13.48;7.55;;;;;;;24.86;51.75;99943.75;5075735;28;20017;-42
2022/05/23 11:42:58;;;;;;;14.02;6.82;;;;;;;25.83;49.30;99932.47;5075440;28;20028;-45
2022/05/23 11:45:57;;;;;;;13.85;6.55;;;;;;;26.14;48.14;99932.34;5075335;28;20027;-42
2022/05/23 11:49:00;;;;;;;13.90;6.38;;;;;;;26.56;45.59;99922.09;5075545;28;20051;-42
2022/05/23 11:51:40;;;;;;;11.02;6.13;;;;;;;25.06;47.41;99909.94;5075424;28;20028;-44
2022/05/23 11:54:09;;;;;;;12.07;6.22;;;;;;;25.48;48.42;99905.94;5075518;28;20035;-41
2022/05/23 11:56:43;;;;;;;11.20;6.03;;;;;;;24.86;47.27;99903.31;5074955;28;20422;-42
2022/05/23 11:59:31;;;;;;;13.98;6.40;;;;;;;24.33;48.33;99900.34;5073997;28;20527;-41
2022/05/23 12:02:09;;;;;;;11.48;6.00;;;;;;;24.19;49.09;99894.34;5074643;28;20024;-43
2022/05/23 12:05:00;;;;;;;10.52;6.32;;;;;;;23.95;49.27;99880.66;5075134;28;20036;-43
2022/05/23 12:07:36;;;;;;;13.93;6.22;;;;;;;23.86;49.61;99875.31;5074540;28;20052;-43
2022/05/23 12:10:20;;;;;;;13.55;5.35;;;;;;;24.53;47.97;99864.78;5074268;28;20367;-43
2022/05/23 12:12:57;;;;;;;11.88;5.70;;;;;;;25.15;47.35;99850.00;5074458;28;20035;-44
2022/05/23 12:15:41;;;;;;;10.23;5.03;;;;;;;24.76;46.48;99849.66;5074795;28;20028;-44
2022/05/23 12:18:06;;;;;;;8.07;4.45;;;;;;;25.16;46.42;99844.41;5074430;28;20028;-42
2022/05/23 12:20:43;;;;;;;12.10;5.53;;;;;;;24.81;46.64;99837.44;5074659;28;20024;-43
2022/05/23 12:23:13;;;;;;;14.35;5.00;;;;;;;24.52;47.67;99846.59;5073561;28;20107;-43
2022/05/23 12:25:38;;;;;;;12.48;5.90;;;;;;;24.38;47.78;99837.94;5054539;28;20116;-40
2022/05/23 12:28:14;;;;;;;11.38;5.90;;;;;;;24.07;48.77;99836.03;5073859;28;20151;-44